Terminal Aerodrome Forecast
Issued by NWS Mt. Holly, NJ

Home | Current Version | Previous Version | Text Only | Print | Product List | Glossary On
Versions: 1 2 3 4 5 6 7 8 9 10 11 12 13 14 15 16 17 18 19 20 21 22 23 24 25
000
FTUS41 KPHI 272334
TAFRDG
TAF
KRDG 272334Z 2800/2824 33008KT P6SM BKN050
      TEMPO 2800/2802 SCT050
     FM281200 33012G24KT P6SM SCT050
     FM281600 32015G25KT P6SM VCSH BKN060=

USA.gov is the U.S. government's official web portal to all federal, state and local government web resources and services.